Time;durP1;ratioP1;P1;durP2;ratioP2;P2;SDS_P1;SDS_P2;PMS_P1;PMS_P2;Temp;Humidity;BMP_temperature;BMP_pressure;BME280_temperature;BME280_humidity;BME280_pressure;Samples;Min_cycle;Max_cycle;Signal;HPM_P1;HPM_P2
2022/10/05 00:01:28;;;;;;;9.67;3.87;;;;;;;12.23;62.75;101242.53;124727;1099;104341;-76
2022/10/05 00:04:06;;;;;;;7.93;3.70;;;;;;;12.21;62.89;101241.55;124830;1098;102819;-76
2022/10/05 00:06:37;;;;;;;8.93;4.20;;;;;;;12.18;62.47;101241.41;124710;1099;104169;-75
2022/10/05 00:09:16;;;;;;;8.83;4.20;;;;;;;12.18;62.84;101245.80;124755;1099;104415;-76
2022/10/05 00:11:48;;;;;;;8.93;4.10;;;;;;;12.16;62.96;101237.83;124740;1099;101819;-77
2022/10/05 00:14:26;;;;;;;5.83;3.53;;;;;;;12.16;62.88;101243.09;124756;1099;104782;-76
2022/10/05 00:16:58;;;;;;;9.77;3.40;;;;;;;12.15;63.13;101253.55;124872;1099;104156;-76
2022/10/05 00:19:35;;;;;;;15.20;4.97;;;;;;;12.14;62.93;101251.75;124755;1097;119262;-76
2022/10/05 00:22:15;;;;;;;9.43;3.73;;;;;;;12.13;63.01;101257.87;124740;1099;104065;-77
2022/10/05 00:24:48;;;;;;;6.40;3.40;;;;;;;12.10;63.38;101248.11;124793;1099;104160;-76
2022/10/05 00:27:22;;;;;;;7.73;3.60;;;;;;;12.10;63.21;101256.00;125930;1098;102232;-77
2022/10/05 00:29:57;;;;;;;6.05;3.58;;;;;;;12.09;63.30;101264.74;124778;1099;104159;-76
2022/10/05 00:32:31;;;;;;;8.13;3.80;;;;;;;12.07;63.48;101258.50;124791;1099;102955;-76
2022/10/05 00:35:02;;;;;;;8.00;3.87;;;;;;;12.06;63.58;101261.98;124786;1099;104197;-76
2022/10/05 00:37:33;;;;;;;8.23;4.00;;;;;;;12.05;63.42;101260.18;124705;1099;103253;-76
2022/10/05 00:40:07;;;;;;;8.90;3.80;;;;;;;12.06;63.66;101261.98;124737;1097;104190;-76
2022/10/05 00:42:51;;;;;;;9.43;3.90;;;;;;;12.05;63.59;101266.33;124766;1099;102139;-76
2022/10/05 00:45:27;;;;;;;9.35;4.12;;;;;;;12.04;63.79;101268.89;124763;1099;104300;-76
2022/10/05 00:48:10;;;;;;;6.77;3.63;;;;;;;12.03;64.08;101267.12;124764;1099;103203;-76
2022/10/05 00:50:58;;;;;;;7.00;3.80;;;;;;;12.01;64.20;101269.69;124770;1099;104262;-76
2022/10/05 00:53:41;;;;;;;10.53;4.30;;;;;;;11.99;64.33;101275.70;124781;1099;102545;-77
2022/10/05 00:56:27;;;;;;;13.27;4.30;;;;;;;11.97;64.20;101274.75;124796;1099;104261;-76
2022/10/05 00:59:09;;;;;;;7.40;3.67;;;;;;;11.94;64.02;101279.88;124725;1099;104295;-76
2022/10/05 01:01:44;;;;;;;9.70;4.20;;;;;;;11.92;64.25;101277.19;124746;1099;104047;-76
2022/10/05 01:04:27;;;;;;;11.57;4.40;;;;;;;11.91;64.23;101283.23;124762;1099;104273;-76
2022/10/05 01:07:10;;;;;;;8.03;3.57;;;;;;;11.88;64.58;101277.84;124687;1099;104227;-76
2022/10/05 01:09:52;;;;;;;9.40;4.17;;;;;;;11.87;64.71;101286.55;124832;1099;102888;-76
2022/10/05 01:12:37;;;;;;;9.63;4.30;;;;;;;11.83;64.88;101285.53;124773;1098;102962;-76
2022/10/05 01:15:15;;;;;;;10.00;3.93;;;;;;;11.82;64.91;101295.98;124726;1099;104054;-76
2022/10/05 01:17:54;;;;;;;9.70;3.87;;;;;;;11.80;64.78;101303.80;124804;1098;104117;-76
2022/10/05 01:20:36;;;;;;;8.37;4.23;;;;;;;11.79;64.95;101304.63;124769;1099;104226;-76
2022/10/05 01:23:34;;;;;;;7.63;4.17;;;;;;;11.78;65.30;101308.11;124856;1099;101813;-76
2022/10/05 01:26:25;;;;;;;7.90;4.17;;;;;;;11.75;65.27;101307.05;124702;1099;104271;-76
2022/10/05 01:29:03;;;;;;;8.47;4.40;;;;;;;11.73;65.52;101312.24;124689;1099;104240;-76
2022/10/05 01:31:42;;;;;;;10.47;4.50;;;;;;;11.69;65.78;101308.59;124761;1098;104195;-76
2022/10/05 01:34:22;;;;;;;8.77;3.73;;;;;;;11.65;65.93;101316.27;124591;1099;104217;-76
2022/10/05 01:37:04;;;;;;;8.23;4.00;;;;;;;11.63;65.97;101323.20;124578;1099;104205;-76
2022/10/05 01:39:46;;;;;;;11.90;4.30;;;;;;;11.61;65.92;101324.84;124307;1099;103873;-76
2022/10/05 01:42:24;;;;;;;7.87;3.83;;;;;;;11.59;65.99;101326.52;124712;1099;102733;-76
2022/10/05 01:45:03;;;;;;;10.20;4.43;;;;;;;11.56;65.96;101323.75;124735;1099;102963;-76
2022/10/05 01:47:42;;;;;;;6.77;3.73;;;;;;;11.52;65.98;101327.98;124783;1099;104338;-76
2022/10/05 01:50:26;;;;;;;7.67;3.90;;;;;;;11.50;66.47;101337.53;124827;1099;101847;-76
2022/10/05 01:53:05;;;;;;;8.93;3.80;;;;;;;11.47;66.24;101335.66;124732;1099;104328;-76
2022/10/05 01:55:45;;;;;;;7.57;4.20;;;;;;;11.48;66.32;101334.84;124702;1099;102781;-76
2022/10/05 01:58:25;;;;;;;9.40;4.10;;;;;;;11.48;66.40;101344.42;124725;1099;104277;-76
2022/10/05 02:01:06;;;;;;;7.73;3.90;;;;;;;11.47;66.62;101348.80;124752;1099;104219;-76
2022/10/05 02:03:43;;;;;;;9.77;4.40;;;;;;;11.46;66.47;101346.09;124803;1099;104267;-76
2022/10/05 02:06:20;;;;;;;11.83;4.40;;;;;;;11.46;66.60;101344.36;124774;1099;102813;-76
2022/10/05 02:08:58;;;;;;;10.20;4.00;;;;;;;11.45;67.04;101353.09;124694;1099;104346;-76
2022/10/05 02:11:30;;;;;;;9.40;4.37;;;;;;;11.45;67.16;101353.09;124573;1099;104233;-76
2022/10/05 02:14:09;;;;;;;10.77;4.50;;;;;;;11.45;67.04;101360.98;124696;1099;104296;-75
2022/10/05 02:16:42;;;;;;;8.23;4.03;;;;;;;11.43;66.46;101359.98;124751;1099;102855;-76
2022/10/05 02:19:18;;;;;;;9.57;4.03;;;;;;;11.43;67.08;101362.61;124746;1099;104169;-76
2022/10/05 02:21:55;;;;;;;7.30;3.93;;;;;;;11.44;67.18;101368.80;124749;1099;104238;-76
2022/10/05 02:24:34;;;;;;;8.27;4.27;;;;;;;11.43;67.16;101373.13;124669;1099;104239;-76
2022/10/05 02:27:08;;;;;;;9.97;4.10;;;;;;;11.41;67.05;101373.91;124778;1099;101853;-76
2022/10/05 02:29:47;;;;;;;9.20;4.10;;;;;;;11.40;67.43;101372.98;124752;1098;104191;-76
2022/10/05 02:32:22;;;;;;;8.00;3.87;;;;;;;11.39;67.30;101372.91;124699;1099;118432;-76
2022/10/05 02:34:59;;;;;;;10.43;3.90;;;;;;;11.37;67.27;101370.21;124726;1100;103708;-75
2022/10/05 02:37:39;;;;;;;11.13;4.23;;;;;;;11.37;67.42;101378.09;124664;1099;104198;-76
2022/10/05 02:40:21;;;;;;;8.67;3.90;;;;;;;11.35;67.59;101376.25;124826;1099;104169;-77
2022/10/05 02:43:01;;;;;;;9.43;4.10;;;;;;;11.35;67.29;101384.12;124789;1099;104235;-77
2022/10/05 02:45:41;;;;;;;7.77;3.90;;;;;;;11.35;67.30;101390.27;124720;1099;104185;-76
2022/10/05 02:48:20;;;;;;;9.10;4.30;;;;;;;11.35;67.88;101385.02;124731;1099;104224;-76
2022/10/05 02:50:59;;;;;;;11.87;4.13;;;;;;;11.36;67.33;101389.45;124813;1099;104041;-77
2022/10/05 02:53:43;;;;;;;9.60;4.10;;;;;;;11.36;67.38;101386.83;124764;1099;104191;-76
2022/10/05 02:56:26;;;;;;;9.30;3.92;;;;;;;11.37;67.10;101395.60;124761;1099;104264;-76
2022/10/05 02:59:05;;;;;;;8.57;4.07;;;;;;;11.37;67.61;101393.86;124756;1098;104347;-76
2022/10/05 03:01:44;;;;;;;11.00;4.57;;;;;;;11.39;67.73;101400.11;124763;1099;104313;-77
2022/10/05 03:04:26;;;;;;;9.43;4.30;;;;;;;11.38;67.59;101400.93;124758;1099;102200;-76
2022/10/05 03:07:16;;;;;;;9.17;4.20;;;;;;;11.37;67.84;101408.74;124704;1099;104296;-76
2022/10/05 03:09:55;;;;;;;13.13;4.27;;;;;;;11.33;67.66;101412.96;124747;1099;104165;-76
2022/10/05 03:12:40;;;;;;;13.83;4.37;;;;;;;11.30;67.49;101403.20;124817;1099;104242;-76
2022/10/05 03:15:27;;;;;;;13.73;4.20;;;;;;;11.29;67.85;101411.01;124714;1099;104178;-76
2022/10/05 03:18:10;;;;;;;12.20;4.60;;;;;;;11.28;67.63;101409.19;124662;1100;103322;-76
2022/10/05 03:20:48;;;;;;;7.77;4.00;;;;;;;11.25;67.92;101412.59;124733;1099;104206;-76
2022/10/05 03:23:31;;;;;;;11.67;4.20;;;;;;;11.23;67.95;101405.46;124837;1099;104163;-78
2022/10/05 03:26:18;;;;;;;8.60;3.93;;;;;;;11.20;67.98;101414.08;124776;1099;102934;-76
2022/10/05 03:29:03;;;;;;;7.27;3.90;;;;;;;11.18;68.07;101417.48;124688;1099;104328;-76
2022/10/05 03:31:42;;;;;;;7.90;3.87;;;;;;;11.18;67.88;101418.38;124797;1099;102366;-77
2022/10/05 03:34:20;;;;;;;12.73;4.67;;;;;;;11.14;67.88;101413.79;124796;1099;102310;-76
2022/10/05 03:36:58;;;;;;;8.00;4.03;;;;;;;11.07;68.22;101419.59;124844;1099;102529;-77
2022/10/05 03:39:36;;;;;;;10.70;4.20;;;;;;;11.11;68.39;101424.15;124763;1099;102938;-76
2022/10/05 03:42:17;;;;;;;11.00;4.60;;;;;;;11.09;68.47;101428.44;124741;1099;102797;-76
2022/10/05 03:44:55;;;;;;;14.03;4.50;;;;;;;11.06;68.57;101423.03;124729;1099;104297;-76
2022/10/05 03:47:36;;;;;;;10.73;4.50;;;;;;;11.06;68.64;101429.17;124695;1099;104312;-76
2022/10/05 03:50:30;;;;;;;9.73;4.53;;;;;;;11.04;68.68;101428.22;124748;1099;102756;-76
2022/10/05 03:53:05;;;;;;;12.70;5.00;;;;;;;11.04;68.51;101440.45;124856;1099;102218;-76
2022/10/05 03:55:41;;;;;;;12.77;4.70;;;;;;;11.04;68.17;101436.09;124724;1098;104179;-76
2022/10/05 03:58:18;;;;;;;18.17;5.87;;;;;;;11.07;68.44;101436.24;124725;1099;104181;-77
2022/10/05 04:00:58;;;;;;;18.43;5.07;;;;;;;11.09;68.52;101434.58;124814;1099;104246;-77
2022/10/05 04:03:35;;;;;;;16.93;5.43;;;;;;;11.13;68.59;101438.28;124859;1099;104174;-77
2022/10/05 04:06:14;;;;;;;19.60;5.40;;;;;;;11.14;68.54;101443.61;124776;1099;104284;-77
2022/10/05 04:08:50;;;;;;;15.17;5.67;;;;;;;11.12;68.73;101449.60;124802;1099;104329;-76
2022/10/05 04:11:29;;;;;;;14.43;5.90;;;;;;;11.09;68.76;101450.34;124785;1099;104153;-77
2022/10/05 04:14:04;;;;;;;17.07;6.70;;;;;;;11.07;68.76;101453.74;124730;1098;104622;-76
2022/10/05 04:16:40;;;;;;;15.10;5.67;;;;;;;11.06;68.99;101450.19;124575;1099;104290;-77
2022/10/05 04:19:20;;;;;;;17.67;5.63;;;;;;;11.09;68.87;101447.72;124743;1099;104316;-77
2022/10/05 04:21:55;;;;;;;11.70;5.30;;;;;;;11.13;69.07;101456.67;124583;1098;104207;-76
2022/10/05 04:24:33;;;;;;;12.47;5.97;;;;;;;11.15;69.02;101448.02;124793;1099;104251;-77
2022/10/05 04:27:11;;;;;;;17.47;6.43;;;;;;;11.17;68.79;101441.95;124722;1099;104275;-77
2022/10/05 04:29:46;;;;;;;15.67;6.30;;;;;;;11.20;69.00;101453.48;124825;1097;102880;-77
2022/10/05 04:32:36;;;;;;;19.20;6.23;;;;;;;11.21;69.10;101459.67;124681;1099;104677;-76
2022/10/05 04:35:26;;;;;;;14.13;5.40;;;;;;;11.20;68.97;101452.60;124731;1099;106810;-76
2022/10/05 04:38:07;;;;;;;16.57;6.03;;;;;;;11.19;68.76;101461.30;124750;1099;102801;-76
2022/10/05 04:40:54;;;;;;;18.47;6.13;;;;;;;11.17;68.95;101469.10;125660;1099;104198;-76
2022/10/05 04:43:33;;;;;;;16.93;6.53;;;;;;;11.15;69.46;101461.14;124762;1099;104280;-77
2022/10/05 04:46:25;;;;;;;24.27;8.33;;;;;;;11.15;69.33;101463.77;124767;1099;102868;-76
2022/10/05 04:49:24;;;;;;;22.37;9.17;;;;;;;11.16;69.34;101462.07;124814;1099;104156;-76
2022/10/05 04:52:05;;;;;;;19.20;8.57;;;;;;;11.15;69.46;101471.66;124713;1099;102359;-76
2022/10/05 04:54:52;;;;;;;18.80;7.87;;;;;;;11.16;69.54;101464.70;124696;1099;104318;-75
2022/10/05 04:57:32;;;;;;;19.03;8.20;;;;;;;11.16;69.51;101472.58;124658;1099;104217;-75
2022/10/05 05:00:18;;;;;;;18.80;7.93;;;;;;;11.17;69.44;101469.10;124723;1098;104274;-75
2022/10/05 05:03:16;;;;;;;16.87;7.10;;;;;;;11.19;69.25;101469.17;124672;1099;104255;-75
2022/10/05 05:05:59;;;;;;;18.00;6.90;;;;;;;11.22;69.31;101477.20;124717;1099;104235;-75
2022/10/05 05:08:56;;;;;;;19.97;6.17;;;;;;;11.24;69.46;101483.46;124705;1099;104255;-75
2022/10/05 05:11:36;;;;;;;16.10;6.60;;;;;;;11.25;69.60;101486.16;124740;1099;104259;-75
2022/10/05 05:14:56;;;;;;;19.17;6.63;;;;;;;11.28;69.59;101491.56;124754;1099;104270;-75
2022/10/05 05:17:42;;;;;;;15.37;6.80;;;;;;;11.34;69.65;101498.83;124286;1102;102260;-75
2022/10/05 05:20:21;;;;;;;19.23;7.30;;;;;;;11.41;69.78;101500.94;124348;1102;104487;-75
2022/10/05 05:22:59;;;;;;;18.93;7.20;;;;;;;11.48;69.71;101507.38;124653;1099;104307;-75
2022/10/05 05:25:47;;;;;;;15.93;6.57;;;;;;;11.53;69.75;101494.45;124703;1099;105418;-75
2022/10/05 05:28:30;;;;;;;18.50;7.30;;;;;;;11.59;69.74;101508.78;124735;1099;104825;-75
2022/10/05 05:31:13;;;;;;;19.30;7.77;;;;;;;11.63;69.87;101501.97;124707;1099;102386;-75
2022/10/05 05:33:55;;;;;;;22.03;7.70;;;;;;;11.67;69.72;101504.81;124749;1099;104187;-75
2022/10/05 05:36:46;;;;;;;16.17;6.87;;;;;;;11.73;70.14;101509.44;125329;1099;111988;-78
2022/10/05 05:39:39;;;;;;;16.57;6.57;;;;;;;11.76;69.93;101511.33;124796;1099;104159;-76
2022/10/05 05:42:26;;;;;;;18.83;6.93;;;;;;;11.79;69.97;101514.09;124801;1099;103392;-76
2022/10/05 05:45:06;;;;;;;21.47;7.63;;;;;;;11.83;69.76;101516.05;124723;1099;104192;-75
2022/10/05 05:47:46;;;;;;;18.10;7.53;;;;;;;11.86;69.98;101521.45;124750;1099;102474;-76
2022/10/05 05:50:36;;;;;;;20.47;8.10;;;;;;;11.90;70.10;101517.23;124783;1099;104236;-76
2022/10/05 05:53:17;;;;;;;14.37;6.63;;;;;;;11.97;70.00;101516.73;124799;1099;104207;-77
2022/10/05 05:55:59;;;;;;;32.90;19.07;;;;;;;11.94;70.15;101499.06;125319;1099;103406;-77
2022/10/05 05:58:49;;;;;;;20.17;8.40;;;;;;;12.08;70.22;101533.91;124731;1099;104373;-76
2022/10/05 06:01:33;;;;;;;21.17;7.90;;;;;;;12.15;70.21;101524.55;125707;1099;104169;-77
2022/10/05 06:04:16;;;;;;;14.83;5.77;;;;;;;12.16;69.87;101511.47;125730;1099;104300;-76
2022/10/05 06:06:52;;;;;;;16.27;5.70;;;;;;;12.27;70.03;101526.85;125660;1099;104310;-76
2022/10/05 06:09:41;;;;;;;11.53;5.33;;;;;;;12.32;69.68;101527.95;125606;1099;102987;-77
2022/10/05 06:12:46;;;;;;;14.17;5.93;;;;;;;12.40;70.01;101534.45;125494;1099;104249;-77
2022/10/05 06:15:28;;;;;;;11.87;5.27;;;;;;;12.45;69.89;101534.66;125595;1099;104178;-77
2022/10/05 06:18:09;;;;;;;12.30;5.30;;;;;;;12.51;69.68;101541.12;124739;1099;104217;-77
2022/10/05 06:20:47;;;;;;;12.97;5.60;;;;;;;12.56;69.62;101544.84;124866;1099;102461;-76
2022/10/05 06:23:26;;;;;;;11.63;5.23;;;;;;;12.61;69.61;101546.79;124757;1099;103665;-76
2022/10/05 06:26:20;;;;;;;11.13;5.30;;;;;;;12.68;69.53;101548.84;125697;1099;104256;-78
2022/10/05 06:29:00;;;;;;;12.37;5.20;;;;;;;12.78;69.50;101548.42;124773;1099;102218;-76
2022/10/05 06:32:02;;;;;;;13.33;5.30;;;;;;;12.85;69.25;101555.73;125818;1099;104252;-77
2022/10/05 06:34:57;;;;;;;15.87;5.27;;;;;;;12.93;69.20;101556.98;125649;1099;101912;-75
2022/10/05 06:37:44;;;;;;;11.77;5.20;;;;;;;13.04;69.37;101560.08;124851;1099;104169;-76
2022/10/05 06:40:28;;;;;;;11.50;5.30;;;;;;;13.13;69.44;101567.45;124790;1099;102768;-77
2022/10/05 06:43:27;;;;;;;12.03;5.23;;;;;;;13.23;69.15;101567.02;124802;1097;104176;-76
2022/10/05 06:46:19;;;;;;;12.90;5.07;;;;;;;13.39;68.90;101565.06;124761;1098;102279;-76
2022/10/05 06:49:20;;;;;;;12.27;5.47;;;;;;;13.53;68.76;101569.16;124802;1099;104226;-76
2022/10/05 06:52:24;;;;;;;12.70;5.80;;;;;;;13.73;68.64;101579.58;124791;1099;102971;-76
2022/10/05 06:55:08;;;;;;;;;;;;;;;13.84;68.01;101570.38;124813;1097;102717;-76
2022/10/05 06:58:07;;;;;;;10.77;5.13;;;;;;;13.87;68.08;101572.22;125574;1099;104293;-77
2022/10/05 07:00:44;;;;;;;14.80;5.40;;;;;;;13.95;68.10;101568.17;125643;1099;104214;-74
2022/10/05 07:03:31;;;;;;;11.80;4.90;;;;;;;14.08;68.48;101582.73;124819;1098;102785;-75
2022/10/05 07:06:10;;;;;;;11.07;4.97;;;;;;;14.26;67.74;101578.16;124800;1099;104281;-75
2022/10/05 07:09:16;;;;;;;11.87;4.77;;;;;;;14.48;67.83;101584.25;125789;1098;107081;-76
2022/10/05 07:12:10;;;;;;;10.10;4.87;;;;;;;14.68;67.20;101583.26;127109;1098;102013;-76
2022/10/05 07:15:16;;;;;;;14.50;5.23;;;;;;;14.77;67.66;101585.31;124916;1099;102280;-75
2022/10/05 07:18:03;;;;;;;10.80;4.70;;;;;;;14.81;67.25;101586.34;125873;1099;103593;-77
2022/10/05 07:21:03;;;;;;;11.60;4.80;;;;;;;14.84;66.35;101591.73;124870;1098;102833;-77
2022/10/05 07:23:57;;;;;;;10.45;4.80;;;;;;;14.83;66.84;101590.81;125576;1099;104678;-77
2022/10/05 07:26:41;;;;;;;14.70;4.87;;;;;;;14.91;66.51;101596.37;124831;1099;104146;-76
2022/10/05 07:29:25;;;;;;;12.00;5.00;;;;;;;15.00;66.24;101595.81;125107;1099;104293;-75
2022/10/05 07:32:42;;;;;;;;;;;;;;;;;;;;;
2022/10/05 07:42:03;;;;;;;9.27;4.53;;;;;;;15.28;66.45;101602.95;124809;1099;104231;-76
2022/10/05 07:44:47;;;;;;;12.27;5.73;;;;;;;15.37;65.56;101612.95;125692;1099;104163;-77
2022/10/05 07:47:32;;;;;;;20.30;9.13;;;;;;;15.51;65.35;101606.37;124875;1099;102751;-78
2022/10/05 07:50:25;;;;;;;11.93;4.90;;;;;;;15.72;65.27;101602.62;125594;1099;102798;-77
2022/10/05 07:53:19;;;;;;;14.67;5.00;;;;;;;15.90;65.31;101605.00;125568;1099;104248;-75
2022/10/05 07:56:12;;;;;;;11.63;5.70;;;;;;;16.02;64.19;101604.46;125607;1099;104156;-77
2022/10/05 07:59:12;;;;;;;12.70;6.43;;;;;;;15.96;64.57;101603.44;125625;1099;104224;-78
2022/10/05 08:02:14;;;;;;;17.20;6.40;;;;;;;15.96;64.12;101611.38;125761;1099;104182;-76
2022/10/05 08:05:13;;;;;;;16.47;6.30;;;;;;;15.95;64.23;101606.03;125176;1099;103048;-77
2022/10/05 08:07:52;;;;;;;10.63;4.80;;;;;;;15.88;64.06;101601.38;125724;1099;104333;-77
2022/10/05 08:10:46;;;;;;;6.83;4.10;;;;;;;15.81;63.42;101602.95;126222;1097;104228;-75
2022/10/05 08:13:20;;;;;;;;;;;;;;;15.68;62.30;101604.28;124932;1099;104159;-76
2022/10/05 08:16:01;;;;;;;12.30;5.50;;;;;;;15.61;63.23;101608.48;125886;1097;102784;-76
2022/10/05 08:18:55;;;;;;;12.47;4.67;;;;;;;15.70;64.03;101612.27;124903;1099;104226;-76
2022/10/05 08:21:34;;;;;;;9.30;4.33;;;;;;;15.85;63.46;101607.50;125692;1098;107921;-76
2022/10/05 08:24:17;;;;;;;11.10;4.50;;;;;;;15.96;63.55;101600.78;124809;1099;104118;-76
2022/10/05 08:27:10;;;;;;;12.97;5.03;;;;;;;16.06;63.43;101604.61;124818;1099;104230;-77
2022/10/05 08:29:55;;;;;;;10.80;4.20;;;;;;;16.10;62.10;101601.22;124960;1099;102279;-77
2022/10/05 08:32:35;;;;;;;12.53;4.63;;;;;;;16.16;62.50;101600.52;124788;1099;104179;-77
2022/10/05 08:35:23;;;;;;;7.17;4.17;;;;;;;16.26;62.18;101593.73;125543;1099;104275;-76
2022/10/05 08:38:01;;;;;;;11.23;4.33;;;;;;;16.35;61.90;101589.59;125604;1099;104290;-76
2022/10/05 08:40:57;;;;;;;8.33;4.43;;;;;;;16.40;62.27;101586.20;125631;1099;104166;-77
2022/10/05 08:44:13;;;;;;;5.70;3.70;;;;;;;16.38;60.62;101587.88;125703;1098;104251;-77
2022/10/05 08:47:11;;;;;;;7.93;3.70;;;;;;;16.38;61.73;101590.53;125410;1099;104274;-75
2022/10/05 08:50:14;;;;;;;6.27;3.53;;;;;;;16.42;59.97;101577.42;124738;1099;104259;-76
2022/10/05 08:53:07;;;;;;;8.83;3.80;;;;;;;16.49;60.71;101586.47;124763;1098;102899;-77
2022/10/05 08:56:06;;;;;;;9.83;4.10;;;;;;;16.59;60.69;101582.32;125557;1099;104606;-76
2022/10/05 08:59:05;;;;;;;9.87;3.50;;;;;;;16.68;59.93;101588.77;125552;1099;104188;-76
2022/10/05 09:02:03;;;;;;;6.87;3.50;;;;;;;16.69;59.88;101590.58;124828;1099;104294;-77
2022/10/05 09:04:57;;;;;;;6.30;3.20;;;;;;;16.67;58.88;101591.38;126297;1099;101865;-77
2022/10/05 09:07:56;;;;;;;7.20;3.70;;;;;;;16.66;59.09;101593.14;124840;1099;104178;-76
2022/10/05 09:10:58;;;;;;;13.43;3.70;;;;;;;16.68;58.49;101590.53;125908;1097;102423;-77
2022/10/05 09:13:58;;;;;;;7.53;3.40;;;;;;;16.83;58.35;101583.01;125792;1098;104265;-78
2022/10/05 09:16:47;;;;;;;6.10;3.10;;;;;;;16.96;57.15;101591.33;124641;1099;102237;-78
2022/10/05 09:20:08;;;;;;;6.80;3.10;;;;;;;17.00;56.60;101586.15;124838;1099;104453;-78
2022/10/05 09:23:14;;;;;;;7.97;3.07;;;;;;;16.94;55.60;101593.94;125146;1099;104255;-77
2022/10/05 09:26:02;;;;;;;5.70;2.97;;;;;;;16.99;56.90;101591.41;124888;1099;102073;-78
2022/10/05 09:28:50;;;;;;;5.37;3.00;;;;;;;16.99;54.89;101602.02;125676;1098;102196;-78
2022/10/05 09:31:41;;;;;;;7.77;2.60;;;;;;;16.78;54.92;101600.55;125620;1099;104163;-78
2022/10/05 09:34:58;;;;;;;7.10;2.90;;;;;;;16.69;54.35;101609.13;125551;1099;109426;-77
2022/10/05 09:38:10;;;;;;;3.83;2.37;;;;;;;16.75;54.66;101610.14;125558;1098;104185;-77
2022/10/05 09:41:15;;;;;;;8.17;2.97;;;;;;;16.78;54.71;101604.92;126589;1098;102306;-76
2022/10/05 09:44:12;;;;;;;6.57;2.90;;;;;;;16.76;53.74;101618.14;125322;1099;104383;-77
2022/10/05 09:50:46;;;;;;;5.53;2.67;;;;;;;16.94;52.89;101616.87;125464;1102;104778;-78
2022/10/05 09:53:40;;;;;;;8.77;3.50;;;;;;;17.10;53.63;101600.54;124344;1102;104970;-76
2022/10/05 09:56:42;;;;;;;10.23;4.10;;;;;;;17.36;53.57;101601.22;124226;1102;104265;-76
2022/10/05 09:59:31;;;;;;;;;;;;;;;17.59;48.55;101607.10;124718;1099;102781;-76
2022/10/05 10:02:30;;;;;;;6.97;2.27;;;;;;;17.68;51.54;101600.22;124343;1099;104188;-76
2022/10/05 10:05:28;;;;;;;4.23;2.03;;;;;;;17.89;51.21;101587.48;124358;1101;104668;-76
2022/10/05 10:08:14;;;;;;;4.63;2.13;;;;;;;18.03;50.12;101589.53;124459;1102;104265;-76
2022/10/05 10:11:14;;;;;;;6.20;2.10;;;;;;;18.05;50.31;101577.21;124814;1099;104153;-78
2022/10/05 10:14:15;;;;;;;8.40;2.63;;;;;;;18.11;49.36;101566.72;125698;1099;102402;-76
2022/10/05 10:17:11;;;;;;;4.20;2.27;;;;;;;18.05;50.10;101574.55;125618;1099;102319;-78
2022/10/05 10:20:15;;;;;;;10.60;2.75;;;;;;;18.13;49.81;101565.87;125046;1099;104217;-76
2022/10/05 10:23:20;;;;;;;4.27;2.33;;;;;;;18.11;48.58;101572.92;124958;1102;104281;-77
2022/10/05 10:30:23;;;;;;;4.30;2.60;;;;;;;17.84;49.75;101551.02;124802;1099;104217;-78
2022/10/05 10:33:25;;;;;;;6.03;2.83;;;;;;;17.95;48.83;101547.80;125588;1099;104251;-76
2022/10/05 10:36:07;;;;;;;4.72;2.60;;;;;;;17.99;48.80;101539.89;124944;1099;104282;-77
2022/10/05 10:38:46;;;;;;;4.87;2.80;;;;;;;17.80;49.18;101550.07;125575;1099;104219;-76
2022/10/05 10:42:11;;;;;;;4.90;2.37;;;;;;;17.71;48.53;101545.44;124528;1099;104232;-76
2022/10/05 10:45:14;;;;;;;3.23;2.50;;;;;;;17.74;48.82;101537.54;124360;1099;104192;-76
2022/10/05 10:48:02;;;;;;;9.57;2.70;;;;;;;17.86;48.61;101555.52;124305;1099;102894;-77
2022/10/05 10:51:04;;;;;;;6.70;2.50;;;;;;;17.74;48.30;101555.23;124275;1099;104320;-77
2022/10/05 10:54:04;;;;;;;6.07;2.23;;;;;;;17.60;48.22;101557.56;124287;1099;104278;-75
2022/10/05 10:57:05;;;;;;;5.33;2.53;;;;;;;17.73;47.79;101558.74;124289;1099;102326;-76
2022/10/05 11:00:19;;;;;;;2.73;1.90;;;;;;;17.84;47.44;101551.02;124238;1099;104192;-76
2022/10/05 11:03:34;;;;;;;4.27;2.37;;;;;;;18.03;47.82;101547.05;124178;1102;107662;-76
2022/10/05 11:06:38;;;;;;;3.13;1.97;;;;;;;18.18;47.45;101547.38;124355;1099;104217;-77
2022/10/05 11:09:50;;;;;;;4.37;2.10;;;;;;;18.27;44.17;101549.34;124247;1099;104169;-76
2022/10/05 11:12:50;;;;;;;8.53;2.63;;;;;;;18.36;45.66;101548.64;124264;1102;104408;-77
2022/10/05 11:16:10;;;;;;;4.17;2.70;;;;;;;18.52;45.96;101558.70;124260;1099;102694;-77
2022/10/05 11:18:58;;;;;;;8.40;2.53;;;;;;;18.63;45.45;101554.48;124263;1102;102867;-77
2022/10/05 11:21:45;;;;;;;6.87;3.77;;;;;;;18.64;43.91;101558.95;124545;1100;104238;-78
2022/10/05 11:25:03;;;;;;;5.00;2.77;;;;;;;18.45;44.84;101551.46;125614;1099;104268;-77
2022/10/05 11:28:23;;;;;;;;;;;;;;;;;;;;;
2022/10/05 11:31:50;;;;;;;5.27;2.43;;;;;;;18.16;45.32;101543.80;125654;1098;103173;-77
2022/10/05 11:35:17;;;;;;;;;;;;;;;;;;;;;
2022/10/05 11:38:26;;;;;;;3.93;2.23;;;;;;;18.23;45.37;101532.45;125439;1099;102804;-79
2022/10/05 11:42:04;;;;;;;5.73;2.30;;;;;;;18.40;44.41;101527.48;125345;1099;104281;-78
2022/10/05 11:45:10;;;;;;;6.20;2.50;;;;;;;18.54;45.23;101514.44;124870;1102;104265;-78
2022/10/05 11:47:57;;;;;;;3.43;2.50;;;;;;;18.68;44.77;101514.70;125104;1103;102373;-79
2022/10/05 11:50:40;;;;;;;3.83;2.37;;;;;;;18.72;45.20;101518.33;125637;1099;104249;-79
2022/10/05 11:53:23;;;;;;;6.43;2.20;;;;;;;18.63;44.21;101508.41;125682;1098;102137;-78
2022/10/05 11:56:08;;;;;;;5.93;2.47;;;;;;;18.59;44.04;101507.47;125586;1099;104757;-78
2022/10/05 11:58:54;;;;;;;3.97;2.10;;;;;;;18.54;43.61;101498.48;124782;1099;104197;-77
2022/10/05 12:01:36;;;;;;;4.97;2.20;;;;;;;18.52;44.01;101502.89;126825;1098;104650;-78
2022/10/05 12:04:18;;;;;;;4.13;2.30;;;;;;;18.44;43.54;101508.06;126866;1098;104348;-78
2022/10/05 12:07:07;;;;;;;4.37;2.23;;;;;;;18.38;43.65;101515.91;125667;1099;104225;-78
2022/10/05 12:13:10;;;;;;;7.47;2.47;;;;;;;18.23;43.15;101516.52;126080;1098;104313;-77
2022/10/05 12:15:59;;;;;;;6.13;1.80;;;;;;;18.12;43.09;101516.29;125633;1099;117753;-78
2022/10/05 12:18:55;;;;;;;6.53;2.10;;;;;;;18.08;43.71;101511.77;125648;1098;104229;-78
2022/10/05 12:21:37;;;;;;;4.93;2.30;;;;;;;18.05;43.66;101519.67;125598;1099;104271;-77
2022/10/05 12:24:23;;;;;;;4.27;1.83;;;;;;;18.04;43.10;101509.02;124987;1099;104185;-77
2022/10/05 12:27:14;;;;;;;3.70;2.10;;;;;;;17.98;43.55;101519.50;125572;1098;104203;-77
2022/10/05 12:29:54;;;;;;;5.17;2.03;;;;;;;17.96;43.54;101520.35;124857;1099;104277;-77
2022/10/05 12:32:41;;;;;;;6.07;2.13;;;;;;;17.96;43.63;101530.98;124279;1099;104162;-77
2022/10/05 12:35:27;;;;;;;4.80;2.10;;;;;;;17.96;43.64;101523.02;124932;1099;104233;-76
2022/10/05 12:38:06;;;;;;;3.67;2.00;;;;;;;17.94;43.12;101524.75;124696;1099;104387;-76
2022/10/05 12:40:50;;;;;;;8.73;2.10;;;;;;;17.92;42.66;101533.53;124890;1099;104187;-76
2022/10/05 12:43:56;;;;;;;7.83;2.47;;;;;;;17.92;43.23;101523.83;125652;1099;104240;-75
2022/10/05 12:46:48;;;;;;;;;;;;;;;;;;;;;
2022/10/05 12:49:49;;;;;;;6.20;2.40;;;;;;;17.92;42.66;101522.91;125129;1099;104200;-76
2022/10/05 12:52:38;;;;;;;10.37;3.20;;;;;;;17.98;43.39;101522.16;125572;1099;101877;-75
2022/10/05 12:55:19;;;;;;;4.00;2.23;;;;;;;18.03;42.78;101516.09;125322;1099;104243;-77
2022/10/05 12:58:08;;;;;;;19.03;12.17;;;;;;;18.06;42.77;101516.16;125798;1099;104265;-77
2022/10/05 13:01:01;;;;;;;7.57;2.80;;;;;;;18.08;42.88;101517.08;126598;1098;104355;-77
2022/10/05 13:03:51;;;;;;;2.80;2.00;;;;;;;18.08;42.53;101525.05;125561;1099;104227;-77